Time;durP1;ratioP1;P1;durP2;ratioP2;P2;SDS_P1;SDS_P2;PMS_P1;PMS_P2;Temp;Humidity;BMP_temperature;BMP_pressure;BME280_temperature;BME280_humidity;BME280_pressure;Samples;Min_cycle;Max_cycle;Signal;HPM_P1;HPM_P2
2021/06/29 00:01:50;;;;;;;;;3.00;2.00;;;;;;;;5000790;28;45517;-80
2021/06/29 00:04:15;;;;;;;;;1.00;1.00;;;;;;;;4989454;28;48336;-78
2021/06/29 00:06:40;;;;;;;;;2.67;2.00;;;;;;;;5000722;28;46324;-78
2021/06/29 00:09:06;;;;;;;;;4.25;3.00;;;;;;;;5001941;28;45398;-78
2021/06/29 00:11:31;;;;;;;;;2.67;1.00;;;;;;;;5005378;28;58835;-79
2021/06/29 00:13:56;;;;;;;;;2.75;2.00;;;;;;;;5184528;22;47543;-78
2021/06/29 00:16:22;;;;;;;;;2.25;2.25;;;;;;;;5221221;22;45883;-78
2021/06/29 00:18:47;;;;;;;;;5.33;2.00;;;;;;;;4973326;28;45504;-78
2021/06/29 00:21:12;;;;;;;;;3.00;2.00;;;;;;;;4973545;28;45595;-78
2021/06/29 00:26:14;;;;;;;;;2.00;2.00;;;;;;;;5336318;22;45855;-78
2021/06/29 00:28:39;;;;;;;;;2.25;2.00;;;;;;;;5004523;28;45601;-80
2021/06/29 00:31:04;;;;;;;;;3.00;2.00;;;;;;;;5013691;28;53350;-78
2021/06/29 00:33:30;;;;;;;;;2.25;2.00;;;;;;;;4998759;28;47346;-79
2021/06/29 00:35:55;;;;;;;;;1.75;1.50;;;;;;;;5015455;28;45549;-78
2021/06/29 00:38:20;;;;;;;;;2.33;2.33;;;;;;;;5007785;28;45756;-79
2021/06/29 00:40:46;;;;;;;;;3.00;2.00;;;;;;;;5004340;28;45814;-78
2021/06/29 00:43:11;;;;;;;;;3.00;3.00;;;;;;;;5013461;28;45656;-78
2021/06/29 00:45:36;;;;;;;;;2.00;2.00;;;;;;;;5004008;28;45751;-78
2021/06/29 00:48:01;;;;;;;;;1.67;1.67;;;;;;;;5016791;28;45834;-80
2021/06/29 00:50:26;;;;;;;;;2.00;1.75;;;;;;;;5006422;28;53965;-79
2021/06/29 00:52:52;;;;;;;;;3.25;3.00;;;;;;;;5011591;28;46428;-79
2021/06/29 00:55:17;;;;;;;;;3.00;2.00;;;;;;;;5008253;28;45355;-79
2021/06/29 00:57:44;;;;;;;;;4.75;2.50;;;;;;;;5005459;28;46438;-78
2021/06/29 01:00:10;;;;;;;;;2.75;2.00;;;;;;;;5006853;28;45494;-78
2021/06/29 01:02:35;;;;;;;;;2.00;2.00;;;;;;;;5009689;28;46055;-78
2021/06/29 01:05:00;;;;;;;;;3.25;2.00;;;;;;;;5003052;28;45563;-79
2021/06/29 01:07:26;;;;;;;;;3.00;2.00;;;;;;;;5012641;28;45548;-78
2021/06/29 01:09:51;;;;;;;;;2.00;2.00;;;;;;;;5005279;28;45676;-78
2021/06/29 01:12:17;;;;;;;;;2.00;2.00;;;;;;;;5006831;28;46141;-80
2021/06/29 01:14:42;;;;;;;;;3.25;2.00;;;;;;;;5016005;28;45986;-80
2021/06/29 01:17:08;;;;;;;;;2.00;2.00;;;;;;;;4985472;28;45448;-78
2021/06/29 01:19:42;;;;;;;;;5.75;3.00;;;;;;;;5006810;28;46041;-78
2021/06/29 01:22:08;;;;;;;;;4.25;2.00;;;;;;;;5003450;28;47111;-78
2021/06/29 01:24:34;;;;;;;;;3.00;3.00;;;;;;;;4992028;28;45459;-79
2021/06/29 01:27:14;;;;;;;;;2.25;2.00;;;;;;;;5008264;28;45550;-78
2021/06/29 01:32:36;;;;;;;;;6.50;3.00;;;;;;;;4970653;28;47215;-78
2021/06/29 01:35:06;;;;;;;;;2.00;2.00;;;;;;;;4970406;28;45630;-78
2021/06/29 01:37:31;;;;;;;;;4.00;2.00;;;;;;;;4967575;28;45484;-78
2021/06/29 01:40:05;;;;;;;;;3.00;3.00;;;;;;;;4966659;28;45554;-79
2021/06/29 01:42:31;;;;;;;;;2.25;2.00;;;;;;;;4969294;28;45981;-79
2021/06/29 01:44:56;;;;;;;;;6.75;3.00;;;;;;;;4972046;28;45570;-79
2021/06/29 01:47:56;;;;;;;;;2.00;2.00;;;;;;;;4974020;28;45688;-78
2021/06/29 01:50:17;;;;;;;;;4.00;3.00;;;;;;;;4970757;28;45713;-78
2021/06/29 01:52:43;;;;;;;;;2.75;2.75;;;;;;;;4977892;28;48179;-78
2021/06/29 01:55:09;;;;;;;;;5.00;3.00;;;;;;;;4980468;28;45486;-80
2021/06/29 01:57:36;;;;;;;;;3.50;3.00;;;;;;;;4971092;28;45678;-75
2021/06/29 02:00:06;;;;;;;;;3.25;3.25;;;;;;;;4982211;28;45619;-75
2021/06/29 02:02:31;;;;;;;;;2.00;2.00;;;;;;;;4975542;28;46033;-75
2021/06/29 02:04:57;;;;;;;;;3.67;2.00;;;;;;;;4968799;28;45632;-75
2021/06/29 02:07:22;;;;;;;;;1.67;1.67;;;;;;;;4984465;28;45518;-75
2021/06/29 02:09:47;;;;;;;;;3.67;2.00;;;;;;;;5006351;28;45940;-75
2021/06/29 02:12:13;;;;;;;;;2.00;2.00;;;;;;;;5007389;28;46316;-75
2021/06/29 02:14:38;;;;;;;;;1.50;1.50;;;;;;;;5009515;28;45512;-75
2021/06/29 02:17:03;;;;;;;;;6.00;3.00;;;;;;;;5005988;28;45799;-75
2021/06/29 02:19:29;;;;;;;;;5.25;1.25;;;;;;;;5017795;28;45865;-75
2021/06/29 02:21:54;;;;;;;;;3.50;3.00;;;;;;;;5010808;28;45635;-75
2021/06/29 02:24:19;;;;;;;;;4.25;2.00;;;;;;;;5010109;28;45630;-76
2021/06/29 02:26:44;;;;;;;;;8.00;2.75;;;;;;;;5012228;28;45964;-76
2021/06/29 02:29:10;;;;;;;;;3.25;2.00;;;;;;;;5007726;28;45630;-76
2021/06/29 02:31:35;;;;;;;;;2.00;2.00;;;;;;;;5012325;28;45549;-77
2021/06/29 02:34:00;;;;;;;;;4.33;3.00;;;;;;;;5014633;28;46448;-75
2021/06/29 02:36:25;;;;;;;;;3.00;2.00;;;;;;;;4994317;28;45554;-75
2021/06/29 02:38:51;;;;;;;;;3.00;2.67;;;;;;;;5012789;28;45625;-75
2021/06/29 02:41:16;;;;;;;;;3.00;2.00;;;;;;;;5011229;28;45835;-75
2021/06/29 02:43:42;;;;;;;;;2.00;2.00;;;;;;;;5011945;28;46135;-76
2021/06/29 02:46:07;;;;;;;;;3.00;2.50;;;;;;;;5015544;28;45439;-76
2021/06/29 02:48:33;;;;;;;;;4.67;2.33;;;;;;;;4996707;28;45590;-75
2021/06/29 02:50:58;;;;;;;;;4.25;2.25;;;;;;;;5014067;28;46187;-75
2021/06/29 02:53:23;;;;;;;;;5.25;3.25;;;;;;;;5009366;28;45641;-75
2021/06/29 02:55:48;;;;;;;;;3.00;2.00;;;;;;;;5002912;28;45428;-76
2021/06/29 02:58:14;;;;;;;;;3.00;3.00;;;;;;;;5047520;22;45877;-78
2021/06/29 03:00:39;;;;;;;;;3.00;2.25;;;;;;;;5029656;28;45559;-78
2021/06/29 03:03:04;;;;;;;;;3.00;3.00;;;;;;;;5034838;28;45545;-78
2021/06/29 03:05:30;;;;;;;;;3.00;2.00;;;;;;;;5033379;28;45640;-78
2021/06/29 03:07:55;;;;;;;;;3.33;3.00;;;;;;;;5033131;28;45575;-79
2021/06/29 03:10:20;;;;;;;;;2.25;2.25;;;;;;;;5039352;28;46920;-78
2021/06/29 03:12:45;;;;;;;;;2.67;2.67;;;;;;;;5029962;28;46212;-78
2021/06/29 03:15:11;;;;;;;;;2.67;2.67;;;;;;;;5027045;28;45821;-78
2021/06/29 03:17:36;;;;;;;;;2.50;2.00;;;;;;;;5026019;28;45568;-78
2021/06/29 03:20:03;;;;;;;;;2.00;2.00;;;;;;;;5028217;28;46317;-78
2021/06/29 03:22:28;;;;;;;;;2.25;1.75;;;;;;;;5029701;28;45529;-78
2021/06/29 03:24:53;;;;;;;;;2.75;2.00;;;;;;;;5027247;28;47859;-78
2021/06/29 03:27:18;;;;;;;;;3.50;3.00;;;;;;;;5025921;28;45816;-79
2021/06/29 03:29:44;;;;;;;;;3.00;2.00;;;;;;;;5029245;28;47199;-78
2021/06/29 03:32:10;;;;;;;;;5.25;3.25;;;;;;;;5021082;28;46272;-78
2021/06/29 03:34:35;;;;;;;;;2.00;2.00;;;;;;;;5031191;28;45394;-78
2021/06/29 03:37:02;;;;;;;;;3.25;2.00;;;;;;;;5034592;28;45472;-79
2021/06/29 03:39:28;;;;;;;;;3.00;1.50;;;;;;;;5023953;28;47917;-77
2021/06/29 03:41:53;;;;;;;;;4.00;3.00;;;;;;;;5014838;28;45605;-79
2021/06/29 03:44:18;;;;;;;;;2.00;2.00;;;;;;;;5018967;28;45570;-78
2021/06/29 03:46:44;;;;;;;;;2.00;2.00;;;;;;;;5028669;28;45475;-79
2021/06/29 03:49:10;;;;;;;;;3.00;2.00;;;;;;;;5027999;28;45444;-78
2021/06/29 03:51:36;;;;;;;;;2.75;2.00;;;;;;;;5024538;28;45807;-78
2021/06/29 03:54:01;;;;;;;;;3.25;2.75;;;;;;;;5029114;28;45395;-78
2021/06/29 03:56:30;;;;;;;;;4.75;2.00;;;;;;;;5026720;28;46682;-76
2021/06/29 03:59:00;;;;;;;;;2.00;2.00;;;;;;;;5022514;28;51386;-75
2021/06/29 04:01:25;;;;;;;;;4.00;2.25;;;;;;;;5026357;28;46149;-75
2021/06/29 04:03:54;;;;;;;;;3.00;3.00;;;;;;;;5021287;28;45593;-75
2021/06/29 04:06:31;;;;;;;;;2.00;2.00;;;;;;;;5006550;28;45617;-76
2021/06/29 04:08:56;;;;;;;;;2.75;2.75;;;;;;;;5026664;28;46402;-76
2021/06/29 04:11:22;;;;;;;;;4.50;3.00;;;;;;;;5021465;28;46599;-75
2021/06/29 04:13:48;;;;;;;;;3.25;2.00;;;;;;;;5025595;28;50100;-75
2021/06/29 04:16:13;;;;;;;;;2.00;2.00;;;;;;;;5026369;28;45627;-75
2021/06/29 04:18:38;;;;;;;;;4.00;3.00;;;;;;;;5023792;28;48398;-75
2021/06/29 04:21:04;;;;;;;;;3.75;2.00;;;;;;;;5028977;28;45636;-76
2021/06/29 04:23:29;;;;;;;;;3.00;3.00;;;;;;;;5025678;28;46053;-75
2021/06/29 04:25:54;;;;;;;;;4.75;3.25;;;;;;;;5009650;28;45629;-75
2021/06/29 04:28:19;;;;;;;;;3.50;3.00;;;;;;;;5032310;28;45487;-76
2021/06/29 04:30:46;;;;;;;;;6.50;2.00;;;;;;;;5024330;28;46172;-75
2021/06/29 04:33:11;;;;;;;;;3.00;3.00;;;;;;;;5007977;28;45475;-76
2021/06/29 04:35:36;;;;;;;;;3.50;1.50;;;;;;;;5034288;28;45636;-75
2021/06/29 04:38:02;;;;;;;;;4.00;3.00;;;;;;;;5027755;28;45625;-76
2021/06/29 04:40:27;;;;;;;;;1.25;1.25;;;;;;;;5034058;28;45598;-75
2021/06/29 04:42:52;;;;;;;;;4.25;3.00;;;;;;;;5026567;28;45866;-75
2021/06/29 04:45:18;;;;;;;;;4.00;2.00;;;;;;;;5031251;28;45677;-75
2021/06/29 04:47:49;;;;;;;;;2.00;2.00;;;;;;;;5015245;28;47051;-75
2021/06/29 04:50:15;;;;;;;;;3.00;1.50;;;;;;;;5026741;28;45584;-75
2021/06/29 04:52:40;;;;;;;;;5.00;3.75;;;;;;;;5013004;28;45801;-75
2021/06/29 04:55:06;;;;;;;;;4.75;1.75;;;;;;;;5034840;28;45604;-75
2021/06/29 04:57:33;;;;;;;;;3.00;2.00;;;;;;;;5028902;28;46295;-78
2021/06/29 04:59:59;;;;;;;;;3.75;3.00;;;;;;;;5016813;28;45823;-78
2021/06/29 05:02:25;;;;;;;;;4.00;3.00;;;;;;;;5033318;28;48498;-80
2021/06/29 05:04:50;;;;;;;;;2.50;2.50;;;;;;;;5009184;28;45690;-78
2021/06/29 05:07:15;;;;;;;;;4.00;2.50;;;;;;;;5030132;28;45606;-78
2021/06/29 05:09:41;;;;;;;;;5.00;4.00;;;;;;;;5023512;28;45736;-78
2021/06/29 05:12:06;;;;;;;;;3.00;2.00;;;;;;;;5027608;28;45420;-78
2021/06/29 05:14:31;;;;;;;;;3.00;3.00;;;;;;;;5026762;28;47274;-78
2021/06/29 05:16:56;;;;;;;;;3.00;3.00;;;;;;;;5032209;28;46176;-78
2021/06/29 05:19:22;;;;;;;;;2.75;2.75;;;;;;;;5028532;28;45606;-78
2021/06/29 05:21:47;;;;;;;;;2.00;2.00;;;;;;;;5028734;28;45771;-78
2021/06/29 05:24:12;;;;;;;;;7.25;4.00;;;;;;;;5034981;28;45663;-78
2021/06/29 05:26:40;;;;;;;;;6.25;5.00;;;;;;;;5035604;28;47602;-78
2021/06/29 05:29:06;;;;;;;;;4.25;4.25;;;;;;;;5014404;28;45674;-78
2021/06/29 05:31:31;;;;;;;;;6.00;5.00;;;;;;;;5032551;28;45886;-79
2021/06/29 05:33:57;;;;;;;;;5.00;5.00;;;;;;;;5015140;28;45719;-78
2021/06/29 05:36:22;;;;;;;;;8.25;6.25;;;;;;;;5032458;28;45558;-78
2021/06/29 05:38:47;;;;;;;;;3.00;3.00;;;;;;;;5034364;28;45517;-78
2021/06/29 05:41:12;;;;;;;;;4.33;4.33;;;;;;;;5028290;28;45597;-78
2021/06/29 05:43:38;;;;;;;;;5.00;3.75;;;;;;;;5026485;28;45933;-83
2021/06/29 05:46:03;;;;;;;;;5.67;4.67;;;;;;;;5011090;28;46907;-78
2021/06/29 05:48:32;;;;;;;;;4.00;4.00;;;;;;;;5014208;28;46314;-78
2021/06/29 05:50:57;;;;;;;;;4.25;4.00;;;;;;;;5018581;28;45656;-78
2021/06/29 05:53:23;;;;;;;;;6.50;4.25;;;;;;;;5028265;28;45547;-78
2021/06/29 05:55:48;;;;;;;;;5.00;3.00;;;;;;;;5027965;28;46946;-78
2021/06/29 05:58:14;;;;;;;;;4.50;3.50;;;;;;;;5011115;28;45494;-75
2021/06/29 06:00:39;;;;;;;;;4.25;4.25;;;;;;;;5027856;28;45447;-75
2021/06/29 06:03:04;;;;;;;;;5.25;4.00;;;;;;;;5012023;28;45710;-75
2021/06/29 06:05:30;;;;;;;;;3.75;3.25;;;;;;;;5033546;28;46106;-75
2021/06/29 06:07:55;;;;;;;;;4.00;3.00;;;;;;;;5027347;28;45613;-75
2021/06/29 06:10:20;;;;;;;;;7.67;3.67;;;;;;;;5012874;28;45756;-75
2021/06/29 06:12:45;;;;;;;;;2.75;2.75;;;;;;;;5023578;28;45527;-75
2021/06/29 06:15:11;;;;;;;;;3.00;3.00;;;;;;;;5027145;28;47305;-76
2021/06/29 06:17:37;;;;;;;;;3.50;3.50;;;;;;;;5034481;28;47088;-74
2021/06/29 06:20:06;;;;;;;;;6.00;4.25;;;;;;;;5026086;28;45340;-75
2021/06/29 06:22:31;;;;;;;;;5.00;4.00;;;;;;;;5016167;28;45502;-75
2021/06/29 06:24:58;;;;;;;;;5.00;4.00;;;;;;;;5027424;28;46010;-75
2021/06/29 06:27:24;;;;;;;;;4.00;4.00;;;;;;;;5028865;28;45770;-76
2021/06/29 06:29:49;;;;;;;;;8.00;5.00;;;;;;;;5030164;28;45435;-76
2021/06/29 06:32:14;;;;;;;;;4.75;3.50;;;;;;;;5026081;28;45613;-75
2021/06/29 06:34:39;;;;;;;;;4.00;4.00;;;;;;;;5029005;28;46035;-77
2021/06/29 06:37:04;;;;;;;;;4.00;4.00;;;;;;;;5029079;28;47375;-75
2021/06/29 06:39:30;;;;;;;;;6.00;5.00;;;;;;;;5029753;28;45520;-75
2021/06/29 06:41:55;;;;;;;;;5.00;3.75;;;;;;;;5028610;28;45563;-77
2021/06/29 06:44:20;;;;;;;;;5.33;4.00;;;;;;;;5031458;28;46590;-75
2021/06/29 06:46:45;;;;;;;;;5.25;4.00;;;;;;;;5026578;28;45844;-76
2021/06/29 06:49:11;;;;;;;;;4.00;4.00;;;;;;;;5029716;28;45587;-76
2021/06/29 06:51:36;;;;;;;;;5.00;5.00;;;;;;;;5026434;28;45562;-76
2021/06/29 06:54:01;;;;;;;;;4.00;4.00;;;;;;;;5028363;28;46109;-75
2021/06/29 06:56:26;;;;;;;;;7.75;6.00;;;;;;;;5026904;28;45546;-78
2021/06/29 06:58:53;;;;;;;;;5.75;5.00;;;;;;;;5014284;28;45345;-78
2021/06/29 07:01:18;;;;;;;;;4.00;4.00;;;;;;;;5031310;28;45742;-78
2021/06/29 07:03:44;;;;;;;;;8.00;5.75;;;;;;;;5028022;28;46455;-78
2021/06/29 07:06:09;;;;;;;;;6.25;5.75;;;;;;;;5028836;28;45695;-78
2021/06/29 07:08:35;;;;;;;;;5.75;5.25;;;;;;;;5034708;28;45767;-79
2021/06/29 07:11:01;;;;;;;;;8.75;5.25;;;;;;;;5032334;28;45535;-78
2021/06/29 07:13:26;;;;;;;;;6.50;6.00;;;;;;;;5022015;28;45531;-78
2021/06/29 07:15:52;;;;;;;;;6.75;6.75;;;;;;;;5033811;28;45588;-78
2021/06/29 07:18:18;;;;;;;;;6.67;6.00;;;;;;;;5028378;28;46278;-78
2021/06/29 07:20:44;;;;;;;;;7.00;5.25;;;;;;;;5033233;28;45608;-79
2021/06/29 07:23:10;;;;;;;;;7.00;5.00;;;;;;;;5009006;28;47884;-78
2021/06/29 07:25:36;;;;;;;;;7.00;5.75;;;;;;;;5024913;28;45588;-78
2021/06/29 07:28:01;;;;;;;;;7.75;6.00;;;;;;;;5027507;28;45450;-78
2021/06/29 07:30:26;;;;;;;;;9.75;6.75;;;;;;;;5026321;28;45610;-78
2021/06/29 07:32:54;;;;;;;;;8.00;6.00;;;;;;;;5019904;28;48269;-78
2021/06/29 07:35:19;;;;;;;;;7.75;7.00;;;;;;;;5034244;28;45841;-78
2021/06/29 07:37:44;;;;;;;;;8.75;7.50;;;;;;;;5029001;28;45902;-78
2021/06/29 07:40:10;;;;;;;;;11.67;8.33;;;;;;;;5020742;28;45805;-78
2021/06/29 07:42:35;;;;;;;;;6.25;6.25;;;;;;;;5026634;28;51018;-78
2021/06/29 07:45:01;;;;;;;;;10.50;7.00;;;;;;;;5035181;28;45615;-78
2021/06/29 07:47:26;;;;;;;;;8.50;7.75;;;;;;;;5027225;28;45630;-78
2021/06/29 07:49:52;;;;;;;;;10.67;7.67;;;;;;;;5028888;28;45841;-79
2021/06/29 07:52:17;;;;;;;;;9.00;7.67;;;;;;;;5029010;28;46178;-79
2021/06/29 07:54:42;;;;;;;;;7.33;6.00;;;;;;;;5041370;28;45446;-78
2021/06/29 07:57:07;;;;;;;;;6.00;5.00;;;;;;;;5031509;28;45640;-75
2021/06/29 07:59:32;;;;;;;;;9.00;6.25;;;;;;;;5025229;28;47425;-75
2021/06/29 08:01:58;;;;;;;;;8.00;7.00;;;;;;;;5022562;28;45528;-75
2021/06/29 08:04:23;;;;;;;;;6.25;4.25;;;;;;;;5028727;28;45531;-76
2021/06/29 08:06:48;;;;;;;;;7.67;6.67;;;;;;;;5027837;28;45770;-75
2021/06/29 08:09:13;;;;;;;;;6.00;6.00;;;;;;;;5024884;28;45619;-76
2021/06/29 08:11:39;;;;;;;;;5.00;5.00;;;;;;;;5029561;28;45773;-76
2021/06/29 08:14:04;;;;;;;;;6.50;4.00;;;;;;;;5006435;28;45494;-75
2021/06/29 08:16:29;;;;;;;;;5.50;3.50;;;;;;;;5032616;28;45672;-75
2021/06/29 08:18:54;;;;;;;;;3.75;3.75;;;;;;;;5024115;28;46285;-75
2021/06/29 08:21:20;;;;;;;;;5.25;3.75;;;;;;;;5023828;28;46446;-76
2021/06/29 08:23:45;;;;;;;;;6.00;5.75;;;;;;;;5028423;28;45540;-76
2021/06/29 08:26:10;;;;;;;;;6.00;5.00;;;;;;;;5029073;28;45712;-75
2021/06/29 08:28:36;;;;;;;;;7.25;7.00;;;;;;;;5025716;28;45684;-76
2021/06/29 08:31:02;;;;;;;;;7.50;5.25;;;;;;;;5024082;28;45596;-75
2021/06/29 08:33:28;;;;;;;;;5.00;5.00;;;;;;;;5004882;28;45689;-76
2021/06/29 08:35:53;;;;;;;;;5.50;5.25;;;;;;;;5029862;28;45431;-76
2021/06/29 08:38:19;;;;;;;;;7.00;7.00;;;;;;;;5026828;28;45630;-75
2021/06/29 08:40:45;;;;;;;;;3.75;3.75;;;;;;;;5025239;28;45944;-76
2021/06/29 08:43:11;;;;;;;;;5.00;5.00;;;;;;;;5032528;28;45513;-76
2021/06/29 08:45:36;;;;;;;;;5.00;4.00;;;;;;;;5010002;28;45534;-75
2021/06/29 08:48:02;;;;;;;;;3.00;3.00;;;;;;;;5032855;28;46283;-75
2021/06/29 08:50:31;;;;;;;;;5.00;5.00;;;;;;;;5008623;28;47723;-77
2021/06/29 08:53:04;;;;;;;;;4.00;4.00;;;;;;;;5000541;28;45576;-76
2021/06/29 08:55:34;;;;;;;;;6.00;3.25;;;;;;;;5022293;28;45698;-75
2021/06/29 08:57:59;;;;;;;;;3.25;3.00;;;;;;;;5023673;28;45591;-79
2021/06/29 09:00:25;;;;;;;;;5.00;3.00;;;;;;;;5026144;28;46278;-78
2021/06/29 09:02:50;;;;;;;;;3.00;3.00;;;;;;;;5010378;28;45686;-78
2021/06/29 09:05:19;;;;;;;;;3.50;3.00;;;;;;;;5006563;28;45573;-78
2021/06/29 09:07:45;;;;;;;;;3.00;3.00;;;;;;;;5030674;28;45351;-79
2021/06/29 09:10:10;;;;;;;;;2.00;2.00;;;;;;;;5027262;28;46028;-78
2021/06/29 09:12:43;;;;;;;;;2.00;2.00;;;;;;;;5027329;28;45821;-78
2021/06/29 09:15:27;;;;;;;;;2.00;2.00;;;;;;;;5015480;28;47688;-78
2021/06/29 09:17:54;;;;;;;;;2.00;2.00;;;;;;;;5019158;28;45729;-79
2021/06/29 09:20:29;;;;;;;;;2.00;2.00;;;;;;;;5029502;28;46190;-78
2021/06/29 09:23:06;;;;;;;;;2.25;2.25;;;;;;;;5033282;28;45661;-78
2021/06/29 09:25:32;;;;;;;;;3.00;2.25;;;;;;;;5034606;28;45669;-80
2021/06/29 09:27:57;;;;;;;;;3.75;3.00;;;;;;;;5015566;28;45494;-80
2021/06/29 09:30:33;;;;;;;;;2.00;2.00;;;;;;;;5028395;28;46071;-79
2021/06/29 09:33:07;;;;;;;;;4.00;2.25;;;;;;;;5030308;28;46336;-79
2021/06/29 09:35:33;;;;;;;;;2.00;2.00;;;;;;;;5034042;28;45636;-78
2021/06/29 09:37:58;;;;;;;;;3.00;2.50;;;;;;;;5043514;28;45574;-78
2021/06/29 09:40:26;;;;;;;;;3.00;3.00;;;;;;;;5133773;22;47174;-78
2021/06/29 09:42:52;;;;;;;;;2.50;1.75;;;;;;;;5028868;28;45634;-79
2021/06/29 09:45:30;;;;;;;;;2.00;2.00;;;;;;;;5035309;28;45681;-79
2021/06/29 09:47:55;;;;;;;;;3.00;2.00;;;;;;;;5096696;22;48517;-78
2021/06/29 09:50:33;;;;;;;;;2.50;2.50;;;;;;;;5013248;28;45821;-79
2021/06/29 09:53:09;;;;;;;;;2.00;2.00;;;;;;;;5247738;22;46301;-77
2021/06/29 09:55:42;;;;;;;;;2.50;1.50;;;;;;;;5026355;28;45468;-77
2021/06/29 09:58:10;;;;;;;;;2.75;2.75;;;;;;;;5019200;28;47345;-77
2021/06/29 10:00:49;;;;;;;;;2.00;2.00;;;;;;;;5008925;28;46170;-77
2021/06/29 10:05:52;;;;;;;;;4.75;3.25;;;;;;;;1484765;26;46057;-79
2021/06/29 10:11:06;;;;;;;;;1.00;1.00;;;;;;;;5460488;22;46574;-79
2021/06/29 10:13:35;;;;;;;;;2.75;2.75;;;;;;;;4986592;28;45629;-77
2021/06/29 10:16:01;;;;;;;;;3.75;2.75;;;;;;;;5011099;28;45882;-77
2021/06/29 10:18:28;;;;;;;;;4.25;1.75;;;;;;;;4991396;28;45966;-78
2021/06/29 10:20:57;;;;;;;;;3.50;1.75;;;;;;;;5004124;28;46266;-77
2021/06/29 10:23:22;;;;;;;;;4.25;2.50;;;;;;;;4993006;28;45602;-76
2021/06/29 10:25:49;;;;;;;;;3.00;3.00;;;;;;;;4994825;28;45571;-77
2021/06/29 10:28:15;;;;;;;;;3.25;2.75;;;;;;;;4995109;28;48779;-77
2021/06/29 10:30:41;;;;;;;;;2.25;2.00;;;;;;;;4960443;28;47883;-79
2021/06/29 10:33:07;;;;;;;;;2.75;2.75;;;;;;;;4976333;28;45614;-79
2021/06/29 10:35:33;;;;;;;;;2.00;2.00;;;;;;;;4966442;28;45611;-79
2021/06/29 10:37:58;;;;;;;;;1.50;1.50;;;;;;;;4961503;28;45614;-79
2021/06/29 10:40:24;;;;;;;;;1.25;1.25;;;;;;;;4958055;28;45701;-79
2021/06/29 10:42:49;;;;;;;;;0.75;0.75;;;;;;;;4956438;28;45554;-79
2021/06/29 10:45:15;;;;;;;;;1.00;1.00;;;;;;;;4957019;28;45451;-79
2021/06/29 10:47:40;;;;;;;;;1.50;1.50;;;;;;;;4958351;28;45630;-79
2021/06/29 10:50:14;;;;;;;;;2.00;2.00;;;;;;;;4952820;28;49058;-78
2021/06/29 10:52:39;;;;;;;;;2.50;1.50;;;;;;;;4957550;28;46676;-79
2021/06/29 10:55:04;;;;;;;;;1.25;1.25;;;;;;;;4954637;28;46583;-80
2021/06/29 10:57:41;;;;;;;;;1.25;1.00;;;;;;;;4956821;28;56132;-77
2021/06/29 11:00:21;;;;;;;;;3.50;0.75;;;;;;;;4962078;28;46098;-76
2021/06/29 11:03:05;;;;;;;;;0.75;0.75;;;;;;;;4973344;28;46139;-76
2021/06/29 11:05:30;;;;;;;;;1.75;1.00;;;;;;;;4987871;28;45653;-76
2021/06/29 11:08:11;;;;;;;;;2.00;2.00;;;;;;;;4977508;28;46106;-76
2021/06/29 11:10:37;;;;;;;;;1.75;1.75;;;;;;;;4987580;28;48872;-76
2021/06/29 11:13:04;;;;;;;;;0.75;0.75;;;;;;;;4986178;28;45537;-76
2021/06/29 11:15:39;;;;;;;;;1.00;0.75;;;;;;;;4992901;28;45794;-77
2021/06/29 11:18:04;;;;;;;;;3.00;1.75;;;;;;;;4988308;28;45674;-76
2021/06/29 11:20:41;;;;;;;;;1.50;1.25;;;;;;;;4988327;28;46949;-76
2021/06/29 11:23:08;;;;;;;;;2.50;2.00;;;;;;;;4985509;28;45591;-76
2021/06/29 11:25:41;;;;;;;;;3.00;1.25;;;;;;;;4990621;28;47734;-76
2021/06/29 11:28:06;;;;;;;;;3.00;2.00;;;;;;;;4987394;28;47554;-77
2021/06/29 11:30:50;;;;;;;;;0.75;0.75;;;;;;;;4986538;28;46148;-76
2021/06/29 11:33:34;;;;;;;;;1.00;1.00;;;;;;;;4996092;28;45620;-77
2021/06/29 11:36:00;;;;;;;;;0.75;0.75;;;;;;;;4985495;28;52968;-77
2021/06/29 11:38:34;;;;;;;;;1.50;1.50;;;;;;;;4985649;28;45592;-76
2021/06/29 11:41:17;;;;;;;;;2.75;2.00;;;;;;;;4993976;28;45772;-76
2021/06/29 11:43:43;;;;;;;;;2.00;2.00;;;;;;;;4993103;28;45611;-76
2021/06/29 11:46:08;;;;;;;;;1.25;1.25;;;;;;;;4986445;28;45479;-76
2021/06/29 11:48:40;;;;;;;;;2.50;1.50;;;;;;;;4997000;28;50936;-76
2021/06/29 11:51:06;;;;;;;;;1.75;1.75;;;;;;;;5020252;28;46763;-76
2021/06/29 11:53:31;;;;;;;;;1.00;1.00;;;;;;;;4987361;28;45533;-76
2021/06/29 11:55:56;;;;;;;;;2.00;2.00;;;;;;;;4983066;28;45489;-78
2021/06/29 11:58:21;;;;;;;;;2.33;1.33;;;;;;;;5041132;22;45928;-78
2021/06/29 12:00:47;;;;;;;;;2.25;2.25;;;;;;;;5007933;28;45542;-80
2021/06/29 12:03:16;;;;;;;;;1.00;1.00;;;;;;;;5018820;28;45383;-79
2021/06/29 12:05:41;;;;;;;;;3.00;1.50;;;;;;;;5015498;28;45839;-80
2021/06/29 12:08:07;;;;;;;;;2.00;2.00;;;;;;;;5008188;28;47677;-79
2021/06/29 12:10:40;;;;;;;;;1.50;1.50;;;;;;;;5011041;28;45617;-80
2021/06/29 12:13:10;;;;;;;;;3.25;1.75;;;;;;;;5051311;22;45976;-79
2021/06/29 12:15:37;;;;;;;;;2.75;2.00;;;;;;;;5031184;22;45295;-79
2021/06/29 12:18:05;;;;;;;;;3.00;2.00;;;;;;;;5380462;22;45493;-79
2021/06/29 12:20:48;;;;;;;;;1.00;1.00;;;;;;;;5003165;28;45663;-79
2021/06/29 12:23:14;;;;;;;;;2.50;1.50;;;;;;;;5000769;28;45659;-79
2021/06/29 12:25:41;;;;;;;;;1.50;1.50;;;;;;;;5005795;28;45620;-79
2021/06/29 12:28:11;;;;;;;;;1.25;1.25;;;;;;;;5003545;28;45661;-79
2021/06/29 12:30:39;;;;;;;;;2.50;1.50;;;;;;;;4999367;28;46270;-79
2021/06/29 12:35:40;;;;;;;;;1.00;1.00;;;;;;;;5177938;22;46138;-80
2021/06/29 12:38:09;;;;;;;;;2.00;2.00;;;;;;;;5007031;28;45522;-80
2021/06/29 12:40:34;;;;;;;;;1.50;1.50;;;;;;;;5007778;28;46297;-80
2021/06/29 12:43:00;;;;;;;;;1.25;1.25;;;;;;;;5014993;28;45683;-80
2021/06/29 12:45:26;;;;;;;;;1.50;1.50;;;;;;;;5016686;28;45691;-77
2021/06/29 12:50:27;;;;;;;;;1.50;1.50;;;;;;;;5058175;22;45620;-79
2021/06/29 12:52:52;;;;;;;;;0.50;0.50;;;;;;;;4988507;28;45489;-79
2021/06/29 12:55:17;;;;;;;;;1.50;0.50;;;;;;;;4991921;28;45616;-79
2021/06/29 12:57:43;;;;;;;;;1.75;1.00;;;;;;;;4993039;28;45568;-76
2021/06/29 13:00:11;;;;;;;;;1.25;1.25;;;;;;;;4999236;28;47011;-76
2021/06/29 13:02:42;;;;;;;;;4.00;2.00;;;;;;;;4984813;28;45637;-76
2021/06/29 13:05:17;;;;;;;;;1.25;1.00;;;;;;;;4989469;28;45534;-76
2021/06/29 13:07:42;;;;;;;;;1.75;1.75;;;;;;;;4986977;28;46047;-76
2021/06/29 13:12:44;;;;;;;;;2.25;2.25;;;;;;;;5063775;27;45676;-76
2021/06/29 13:15:13;;;;;;;;;3.50;2.50;;;;;;;;5056851;27;45602;-76
2021/06/29 13:17:52;;;;;;;;;2.50;2.50;;;;;;;;5067451;27;45483;-76
2021/06/29 13:20:22;;;;;;;;;3.75;2.50;;;;;;;;5068708;27;45636;-77
2021/06/29 13:22:49;;;;;;;;;4.75;2.50;;;;;;;;5061920;27;45573;-76
2021/06/29 13:25:31;;;;;;;;;2.00;1.75;;;;;;;;5067924;27;45623;-76
2021/06/29 13:28:04;;;;;;;;;2.25;2.25;;;;;;;;5055859;27;45438;-77
2021/06/29 13:30:30;;;;;;;;;4.75;4.00;;;;;;;;5053992;27;48456;-76
2021/06/29 13:36:00;;;;;;;;;3.00;3.00;;;;;;;;5070821;27;45480;-77
2021/06/29 13:38:26;;;;;;;;;4.25;3.00;;;;;;;;5069788;27;45591;-76
2021/06/29 13:40:51;;;;;;;;;5.75;2.50;;;;;;;;5067127;27;46249;-76
2021/06/29 13:43:19;;;;;;;;;4.67;3.00;;;;;;;;5071644;27;45315;-77
2021/06/29 13:53:30;;;;;;;;;3.00;2.25;;;;;;;;5742673;22;62562;-74
2021/06/29 13:55:56;;;;;;;;;5.25;3.75;;;;;;;;5002791;22;45548;-75
2021/06/29 13:58:26;;;;;;;;;2.75;2.25;;;;;;;;4989821;28;45527;-74
2021/06/29 14:01:01;;;;;;;;;4.75;3.25;;;;;;;;4983642;28;45514;-75
2021/06/29 14:03:30;;;;;;;;;3.25;3.00;;;;;;;;4966312;28;59351;-75
2021/06/29 14:06:05;;;;;;;;;3.00;3.00;;;;;;;;4975097;28;45577;-75
2021/06/29 14:08:35;;;;;;;;;5.00;3.50;;;;;;;;4955350;28;45635;-75
2021/06/29 14:11:01;;;;;;;;;2.50;2.50;;;;;;;;4970043;28;46342;-76
2021/06/29 14:13:30;;;;;;;;;2.33;2.33;;;;;;;;4974849;28;45499;-75
2021/06/29 14:15:56;;;;;;;;;1.50;1.50;;;;;;;;4965278;28;58494;-74
2021/06/29 14:18:22;;;;;;;;;2.00;2.00;;;;;;;;4967700;28;50720;-74
2021/06/29 14:20:47;;;;;;;;;3.25;2.50;;;;;;;;5107709;22;46432;-74
2021/06/29 14:23:12;;;;;;;;;3.25;2.75;;;;;;;;4991665;28;45567;-74
2021/06/29 14:25:37;;;;;;;;;4.67;3.33;;;;;;;;4990849;28;45470;-74
2021/06/29 14:28:03;;;;;;;;;3.00;3.00;;;;;;;;4985200;28;45668;-74
2021/06/29 14:30:28;;;;;;;;;2.00;2.00;;;;;;;;4985533;28;46712;-74
2021/06/29 14:32:58;;;;;;;;;3.00;3.00;;;;;;;;4989160;28;45523;-74
2021/06/29 14:35:23;;;;;;;;;5.75;4.00;;;;;;;;5000550;28;45735;-74
2021/06/29 14:37:48;;;;;;;;;6.25;3.50;;;;;;;;5003901;28;45462;-74
2021/06/29 14:40:39;;;;;;;;;3.00;2.67;;;;;;;;5011376;28;51168;-75
2021/06/29 14:43:20;;;;;;;;;2.25;2.25;;;;;;;;4976581;28;45528;-74
2021/06/29 14:45:45;;;;;;;;;2.75;2.25;;;;;;;;4994276;28;45651;-75
2021/06/29 14:48:14;;;;;;;;;4.25;2.50;;;;;;;;5000691;28;45411;-74
2021/06/29 14:50:40;;;;;;;;;4.00;2.00;;;;;;;;4990966;28;48080;-74
2021/06/29 14:53:06;;;;;;;;;3.00;2.75;;;;;;;;4973573;28;45723;-74
2021/06/29 14:55:31;;;;;;;;;3.25;3.25;;;;;;;;4998814;28;45483;-74
2021/06/29 14:57:57;;;;;;;;;3.50;3.50;;;;;;;;4994229;28;46405;-77
2021/06/29 15:00:23;;;;;;;;;2.75;2.75;;;;;;;;4994689;28;45984;-78
2021/06/29 15:05:21;;;;;;;;;2.75;2.75;;;;;;;;5028442;28;46009;-78
2021/06/29 15:07:46;;;;;;;;;6.33;3.33;;;;;;;;5031688;28;45359;-77
2021/06/29 15:10:13;;;;;;;;;4.50;4.50;;;;;;;;5044475;28;46071;-77
2021/06/29 15:12:39;;;;;;;;;4.75;4.00;;;;;;;;5031275;28;45422;-77
2021/06/29 15:17:43;;;;;;;;;7.00;5.00;;;;;;;;5092277;22;45833;-78